sensor_id;sensor_type;location;lat;lon;timestamp;pressure;altitude;pressure_sealevel;temperature;humidity
11878;BME280;5998;42.676;23.268;2022-10-31T19:25:06;95461.56;;;14.86;100.00
11878;BME280;5998;42.676;23.268;2022-10-31T19:27:33;95461.94;;;14.85;100.00
11878;BME280;5998;42.676;23.268;2022-10-31T19:30:00;95468.59;;;14.87;100.00
11878;BME280;5998;42.676;23.268;2022-10-31T19:32:26;95458.00;;;14.82;100.00
11878;BME280;5998;42.676;23.268;2022-10-31T19:34:53;95473.69;;;14.89;100.00
11878;BME280;5998;42.676;23.268;2022-10-31T19:37:20;95477.63;;;14.91;100.00
11878;BME280;5998;42.676;23.268;2022-10-31T19:39:46;95475.75;;;14.95;100.00
11878;BME280;5998;42.676;23.268;2022-10-31T19:42:14;95480.31;;;14.91;100.00
11878;BME280;5998;42.676;23.268;2022-10-31T19:44:41;95472.53;;;14.90;100.00
11878;BME280;5998;42.676;23.268;2022-10-31T19:47:08;95473.03;;;14.95;100.00
11878;BME280;5998;42.676;23.268;2022-10-31T19:49:36;95480.84;;;14.97;100.00
11878;BME280;5998;42.676;23.268;2022-10-31T19:52:02;95489.06;;;14.85;100.00
11878;BME280;5998;42.676;23.268;2022-10-31T19:54:29;95477.94;;;14.90;100.00
11878;BME280;5998;42.676;23.268;2022-10-31T19:56:56;95480.31;;;14.91;100.00
11878;BME280;5998;42.676;23.268;2022-10-31T19:59:24;95482.94;;;14.88;100.00
11878;BME280;5998;42.676;23.268;2022-10-31T20:01:51;95476.72;;;14.87;100.00
11878;BME280;5998;42.676;23.268;2022-10-31T20:04:18;95483.22;;;14.83;100.00
11878;BME280;5998;42.676;23.268;2022-10-31T20:06:45;95481.19;;;14.80;100.00
11878;BME280;5998;42.676;23.268;2022-10-31T20:09:13;95479.59;;;14.78;100.00
11878;BME280;5998;42.676;23.268;2022-10-31T20:11:40;95488.91;;;14.77;100.00
11878;BME280;5998;42.676;23.268;2022-10-31T20:14:09;95484.94;;;14.75;100.00
11878;BME280;5998;42.676;23.268;2022-10-31T20:16:38;95483.72;;;14.72;100.00
11878;BME280;5998;42.676;23.268;2022-10-31T20:19:05;95489.84;;;14.69;100.00
11878;BME280;5998;42.676;23.268;2022-10-31T20:21:35;95495.59;;;14.84;100.00
11878;BME280;5998;42.676;23.268;2022-10-31T20:24:04;95483.38;;;14.74;100.00
11878;BME280;5998;42.676;23.268;2022-10-31T20:26:32;95491.78;;;14.85;100.00
11878;BME280;5998;42.676;23.268;2022-10-31T20:29:00;95496.06;;;14.86;100.00
11878;BME280;5998;42.676;23.268;2022-10-31T20:31:29;95502.25;;;14.86;100.00
11878;BME280;5998;42.676;23.268;2022-10-31T20:33:57;95496.66;;;14.79;100.00
11878;BME280;5998;42.676;23.268;2022-10-31T20:36:24;95481.16;;;14.48;100.00
11878;BME280;5998;42.676;23.268;2022-10-31T20:38:53;95501.44;;;14.54;100.00
11878;BME280;5998;42.676;23.268;2022-10-31T20:41:19;95502.94;;;14.52;100.00
11878;BME280;5998;42.676;23.268;2022-10-31T20:43:46;95506.69;;;14.47;100.00
11878;BME280;5998;42.676;23.268;2022-10-31T20:46:15;95511.91;;;14.40;100.00
11878;BME280;5998;42.676;23.268;2022-10-31T20:48:43;95509.81;;;14.34;100.00
11878;BME280;5998;42.676;23.268;2022-10-31T20:51:13;95516.22;;;14.29;100.00
11878;BME280;5998;42.676;23.268;2022-10-31T20:53:40;95514.81;;;14.19;100.00
11878;BME280;5998;42.676;23.268;2022-10-31T20:56:08;95518.66;;;14.18;100.00
11878;BME280;5998;42.676;23.268;2022-10-31T20:58:36;95509.00;;;14.05;100.00
11878;BME280;5998;42.676;23.268;2022-10-31T21:01:04;95525.19;;;14.17;100.00
11878;BME280;5998;42.676;23.268;2022-10-31T21:03:31;95520.38;;;14.11;100.00
11878;BME280;5998;42.676;23.268;2022-10-31T21:06:02;95529.88;;;14.05;100.00
11878;BME280;5998;42.676;23.268;2022-10-31T21:08:31;95531.78;;;14.04;100.00
11878;BME280;5998;42.676;23.268;2022-10-31T21:10:59;95527.72;;;13.98;100.00
11878;BME280;5998;42.676;23.268;2022-10-31T21:13:26;95529.69;;;13.98;100.00
11878;BME280;5998;42.676;23.268;2022-10-31T21:16:00;95520.78;;;13.85;100.00
11878;BME280;5998;42.676;23.268;2022-10-31T21:18:27;95527.44;;;13.88;100.00
11878;BME280;5998;42.676;23.268;2022-10-31T21:20:54;95523.84;;;13.84;100.00
11878;BME280;5998;42.676;23.268;2022-10-31T21:23:21;95519.00;;;13.77;100.00
11878;BME280;5998;42.676;23.268;2022-10-31T21:25:49;95519.38;;;13.64;100.00
11878;BME280;5998;42.676;23.268;2022-10-31T21:28:16;95524.91;;;13.67;100.00
11878;BME280;5998;42.676;23.268;2022-10-31T21:30:45;95513.28;;;13.54;100.00
11878;BME280;5998;42.676;23.268;2022-10-31T21:33:14;95520.50;;;13.63;100.00
11878;BME280;5998;42.676;23.268;2022-10-31T21:35:47;95520.84;;;13.61;100.00
11878;BME280;5998;42.676;23.268;2022-10-31T21:38:14;95520.41;;;13.59;100.00
11878;BME280;5998;42.676;23.268;2022-10-31T21:40:41;95519.63;;;13.58;100.00
11878;BME280;5998;42.676;23.268;2022-10-31T21:43:09;95518.03;;;13.57;100.00
11878;BME280;5998;42.676;23.268;2022-10-31T21:45:36;95506.31;;;13.41;100.00
11878;BME280;5998;42.676;23.268;2022-10-31T21:48:03;95524.13;;;13.54;100.00
11878;BME280;5998;42.676;23.268;2022-10-31T21:50:30;95520.84;;;13.49;100.00
11878;BME280;5998;42.676;23.268;2022-10-31T21:52:56;95512.78;;;13.37;100.00
11878;BME280;5998;42.676;23.268;2022-10-31T21:55:43;95518.28;;;13.40;100.00
11878;BME280;5998;42.676;23.268;2022-10-31T21:58:11;95522.00;;;13.36;100.00
11878;BME280;5998;42.676;23.268;2022-10-31T22:00:37;95522.69;;;13.33;100.00
11878;BME280;5998;42.676;23.268;2022-10-31T22:03:04;95524.16;;;13.30;100.00
11878;BME280;5998;42.676;23.268;2022-10-31T22:05:32;95524.16;;;13.30;100.00
11878;BME280;5998;42.676;23.268;2022-10-31T22:07:59;95525.97;;;13.26;100.00
11878;BME280;5998;42.676;23.268;2022-10-31T22:10:26;95527.19;;;13.17;100.00
11878;BME280;5998;42.676;23.268;2022-10-31T22:12:52;95524.59;;;13.08;100.00
11878;BME280;5998;42.676;23.268;2022-10-31T22:15:20;95536.56;;;13.07;100.00
11878;BME280;5998;42.676;23.268;2022-10-31T22:17:48;95529.53;;;13.06;100.00
11878;BME280;5998;42.676;23.268;2022-10-31T22:20:14;95529.53;;;13.06;100.00
11878;BME280;5998;42.676;23.268;2022-10-31T22:22:41;95533.25;;;13.01;100.00
11878;BME280;5998;42.676;23.268;2022-10-31T22:25:08;95531.53;;;12.97;100.00
11878;BME280;5998;42.676;23.268;2022-10-31T22:27:35;95534.59;;;12.95;100.00
11878;BME280;5998;42.676;23.268;2022-10-31T22:30:03;95530.09;;;12.87;100.00
11878;BME280;5998;42.676;23.268;2022-10-31T22:32:32;95544.84;;;12.90;100.00
11878;BME280;5998;42.676;23.268;2022-10-31T22:34:59;95539.75;;;12.88;100.00
11878;BME280;5998;42.676;23.268;2022-10-31T22:37:25;95546.31;;;12.87;100.00
11878;BME280;5998;42.676;23.268;2022-10-31T22:39:52;95541.56;;;12.84;100.00
11878;BME280;5998;42.676;23.268;2022-10-31T22:42:19;95542.38;;;12.85;100.00
11878;BME280;5998;42.676;23.268;2022-10-31T22:44:45;95542.25;;;12.81;100.00
11878;BME280;5998;42.676;23.268;2022-10-31T22:47:12;95544.50;;;12.79;100.00
11878;BME280;5998;42.676;23.268;2022-10-31T22:49:41;95544.81;;;12.78;100.00
11878;BME280;5998;42.676;23.268;2022-10-31T22:52:08;95546.63;;;12.74;100.00
11878;BME280;5998;42.676;23.268;2022-10-31T22:54:34;95540.75;;;12.72;100.00
11878;BME280;5998;42.676;23.268;2022-10-31T22:57:01;95545.91;;;12.65;100.00
11878;BME280;5998;42.676;23.268;2022-10-31T22:59:28;95542.31;;;12.61;100.00
11878;BME280;5998;42.676;23.268;2022-10-31T23:01:54;95547.59;;;12.24;100.00
11878;BME280;5998;42.676;23.268;2022-10-31T23:04:21;95547.47;;;12.21;100.00
11878;BME280;5998;42.676;23.268;2022-10-31T23:06:49;95519.50;;;12.05;100.00
11878;BME280;5998;42.676;23.268;2022-10-31T23:09:16;95544.38;;;12.10;100.00
11878;BME280;5998;42.676;23.268;2022-10-31T23:11:43;95535.56;;;12.01;100.00
11878;BME280;5998;42.676;23.268;2022-10-31T23:14:14;95546.28;;;12.10;100.00
11878;BME280;5998;42.676;23.268;2022-10-31T23:16:46;95548.84;;;12.06;100.00
11878;BME280;5998;42.676;23.268;2022-10-31T23:19:15;95552.91;;;12.00;100.00
11878;BME280;5998;42.676;23.268;2022-10-31T23:21:43;95545.91;;;11.99;100.00
11878;BME280;5998;42.676;23.268;2022-10-31T23:24:27;95544.66;;;11.97;100.00
11878;BME280;5998;42.676;23.268;2022-10-31T23:26:55;95548.47;;;11.96;100.00
11878;BME280;5998;42.676;23.268;2022-10-31T23:29:31;95557.38;;;11.96;100.00
11878;BME280;5998;42.676;23.268;2022-10-31T23:31:58;95541.69;;;11.90;100.00
11878;BME280;5998;42.676;23.268;2022-10-31T23:34:25;95543.13;;;11.87;100.00
11878;BME280;5998;42.676;23.268;2022-10-31T23:36:51;95552.38;;;11.86;100.00
11878;BME280;5998;42.676;23.268;2022-10-31T23:39:18;95551.88;;;11.84;100.00
11878;BME280;5998;42.676;23.268;2022-10-31T23:41:46;95553.81;;;11.83;100.00
11878;BME280;5998;42.676;23.268;2022-10-31T23:44:13;95552.56;;;11.81;100.00
11878;BME280;5998;42.676;23.268;2022-10-31T23:46:39;95549.28;;;11.75;100.00
11878;BME280;5998;42.676;23.268;2022-10-31T23:49:06;95531.09;;;11.64;100.00
11878;BME280;5998;42.676;23.268;2022-10-31T23:51:33;95548.34;;;11.71;100.00
11878;BME280;5998;42.676;23.268;2022-10-31T23:54:00;95555.66;;;11.71;100.00
11878;BME280;5998;42.676;23.268;2022-10-31T23:56:26;95542.97;;;11.63;100.00
11878;BME280;5998;42.676;23.268;2022-10-31T23:58:55;95554.09;;;11.70;100.00
